Etusivu
METAR-TAF:

METAR-TAF

Lentoasemat :

Buochs, Sveitsi

Leveyspiiri: 46-58-28N, Pituuspiiri: 8-23-49E, korkeus merenpinnasta: 449 m

Tämänhetkinen sää

Tämä raportti tehtiin 33 minuuttia sitten, kello 20.50 UTC
Tuuli 3 kn lännestä, vaihdellen lännen/lounaan ja luoteen välillä
Lämpötila 3°C
Kosteus 87%
Ilmanpaine 1016 hPa
Näkyvyys 10 km tai enemmän
Hajonneita pilviä 14000 ft:n korkeudessa

METAR: LSZC 182050Z AUTO 28003KT 250V310 9999 BKN140 03/01 Q1016

Aika: 22:23 (21:23 UTC)

Sääennuste

Tämä raportti tehtiin 4 tuntia ja 45 minuuttia sitten, kello 16.38 UTC
Ennuste voimassa 18. päivästä klo 16 UTC - 18. päivään klo 24 UTC
Tuuli 5 kn idästä
Näkyvyys 10 km tai enemmän
Muutamia pilviä 2500 ft:n korkeudessa
Hajanaisia pilviä 5000 ft:n korkeudessa
Ajoittain
18. päivästä klo 16 UTC - 18. päivään klo 22 UTC
Näkyvyys 10 km tai enemmän
ei pilviä alle 1500 m:ssä eikä cumulonimbus-pilviä

TAF: LSZC 181638Z 1816/1824 09005KT 9999 FEW025 SCT050 TEMPO 1816/1822 CAVOK

Säähavainnot ja -ennusteet yli 4000 lentoasemalta (METAR- ja TAF-raportit).

Käytössä olevat sääasemat on merkitty karttaan keltaisilla ja punaisilla pisteillä.

Aseta hiiri pisteen päälle nähdäksesi sääaseman nimen.

Klikkaa sitten nähdäksesi säähavainnot ja -ennusteet.

Kartan vaihtaminen: klikkaa mustalla rastilla varustettuja vihreitä pisteitä, niin voit zoomata sisään; viivalla varustettua vihreää pistettä, niin voit zoomata ulos tai vihreitä nuolia, niin pääset viereisille kartoille.


METAR-TAF: